sensor_id;sensor_type;location;lat;lon;timestamp;temperature;humidity
32706;DHT22;19094;50.972;3.538;2024-02-21T00:01:47;13.70;72.80
32706;DHT22;19094;50.972;3.538;2024-02-21T00:04:12;13.70;72.80
32706;DHT22;19094;50.972;3.538;2024-02-21T00:06:38;13.60;72.90
32706;DHT22;19094;50.972;3.538;2024-02-21T00:09:03;13.60;73.10
32706;DHT22;19094;50.972;3.538;2024-02-21T00:11:29;13.60;73.20
32706;DHT22;19094;50.972;3.538;2024-02-21T00:13:55;13.60;73.00
32706;DHT22;19094;50.972;3.538;2024-02-21T00:16:20;13.60;73.60
32706;DHT22;19094;50.972;3.538;2024-02-21T00:18:46;13.70;73.10
32706;DHT22;19094;50.972;3.538;2024-02-21T00:21:12;13.60;73.00
32706;DHT22;19094;50.972;3.538;2024-02-21T00:23:46;13.60;73.10
32706;DHT22;19094;50.972;3.538;2024-02-21T00:26:12;13.60;73.00
32706;DHT22;19094;50.972;3.538;2024-02-21T00:28:39;13.60;72.90
32706;DHT22;19094;50.972;3.538;2024-02-21T00:31:04;13.60;72.90
32706;DHT22;19094;50.972;3.538;2024-02-21T00:33:30;13.60;72.90
32706;DHT22;19094;50.972;3.538;2024-02-21T00:35:56;13.60;72.90
32706;DHT22;19094;50.972;3.538;2024-02-21T00:38:21;13.60;72.90
32706;DHT22;19094;50.972;3.538;2024-02-21T00:40:47;13.60;72.90
32706;DHT22;19094;50.972;3.538;2024-02-21T00:43:13;13.60;73.00
32706;DHT22;19094;50.972;3.538;2024-02-21T00:45:39;13.60;73.10
32706;DHT22;19094;50.972;3.538;2024-02-21T00:48:05;13.60;73.10
32706;DHT22;19094;50.972;3.538;2024-02-21T00:50:30;13.60;73.20
32706;DHT22;19094;50.972;3.538;2024-02-21T00:52:56;13.60;73.20
32706;DHT22;19094;50.972;3.538;2024-02-21T00:55:22;13.60;73.20
32706;DHT22;19094;50.972;3.538;2024-02-21T00:57:47;13.60;73.30
32706;DHT22;19094;50.972;3.538;2024-02-21T01:00:13;13.60;73.40
32706;DHT22;19094;50.972;3.538;2024-02-21T01:02:39;13.50;73.30
32706;DHT22;19094;50.972;3.538;2024-02-21T01:05:05;13.50;73.50
32706;DHT22;19094;50.972;3.538;2024-02-21T01:07:31;13.50;73.60
32706;DHT22;19094;50.972;3.538;2024-02-21T01:09:56;13.50;73.60
32706;DHT22;19094;50.972;3.538;2024-02-21T01:12:22;13.50;73.50
32706;DHT22;19094;50.972;3.538;2024-02-21T01:14:48;13.50;73.50
32706;DHT22;19094;50.972;3.538;2024-02-21T01:17:15;13.50;73.50
32706;DHT22;19094;50.972;3.538;2024-02-21T01:19:41;13.40;73.60
32706;DHT22;19094;50.972;3.538;2024-02-21T01:22:06;13.50;73.60
32706;DHT22;19094;50.972;3.538;2024-02-21T01:24:32;13.40;73.60
32706;DHT22;19094;50.972;3.538;2024-02-21T01:26:58;13.40;73.60
32706;DHT22;19094;50.972;3.538;2024-02-21T01:29:24;13.40;73.60
32706;DHT22;19094;50.972;3.538;2024-02-21T01:31:49;13.50;73.60
32706;DHT22;19094;50.972;3.538;2024-02-21T01:34:15;13.50;73.60
32706;DHT22;19094;50.972;3.538;2024-02-21T01:36:41;13.50;73.50
32706;DHT22;19094;50.972;3.538;2024-02-21T01:39:07;13.50;73.60
32706;DHT22;19094;50.972;3.538;2024-02-21T01:41:33;13.40;73.60
32706;DHT22;19094;50.972;3.538;2024-02-21T01:43:59;13.40;73.60
32706;DHT22;19094;50.972;3.538;2024-02-21T01:46:24;13.40;73.60
32706;DHT22;19094;50.972;3.538;2024-02-21T01:48:56;13.40;73.60
32706;DHT22;19094;50.972;3.538;2024-02-21T01:51:23;13.40;73.60
32706;DHT22;19094;50.972;3.538;2024-02-21T01:53:51;13.40;73.60
32706;DHT22;19094;50.972;3.538;2024-02-21T01:56:17;13.40;73.50
32706;DHT22;19094;50.972;3.538;2024-02-21T01:58:43;13.40;73.60
32706;DHT22;19094;50.972;3.538;2024-02-21T02:01:10;13.40;73.70
32706;DHT22;19094;50.972;3.538;2024-02-21T02:03:36;13.40;73.70
32706;DHT22;19094;50.972;3.538;2024-02-21T02:06:04;13.40;73.60
32706;DHT22;19094;50.972;3.538;2024-02-21T02:08:31;13.40;73.60
32706;DHT22;19094;50.972;3.538;2024-02-21T02:10:57;13.30;73.60
32706;DHT22;19094;50.972;3.538;2024-02-21T02:13:23;13.30;73.70
32706;DHT22;19094;50.972;3.538;2024-02-21T02:15:49;13.30;73.70
32706;DHT22;19094;50.972;3.538;2024-02-21T02:18:16;13.30;73.70
32706;DHT22;19094;50.972;3.538;2024-02-21T02:20:43;13.40;73.70
32706;DHT22;19094;50.972;3.538;2024-02-21T02:23:28;13.30;73.60
32706;DHT22;19094;50.972;3.538;2024-02-21T02:25:54;13.30;73.60
32706;DHT22;19094;50.972;3.538;2024-02-21T02:28:20;13.40;73.50
32706;DHT22;19094;50.972;3.538;2024-02-21T02:30:46;13.30;73.60
32706;DHT22;19094;50.972;3.538;2024-02-21T02:33:12;13.40;73.60
32706;DHT22;19094;50.972;3.538;2024-02-21T02:35:38;13.30;73.60
32706;DHT22;19094;50.972;3.538;2024-02-21T02:38:04;13.40;73.60
32706;DHT22;19094;50.972;3.538;2024-02-21T02:40:30;13.40;73.60
32706;DHT22;19094;50.972;3.538;2024-02-21T02:42:56;13.40;73.60
32706;DHT22;19094;50.972;3.538;2024-02-21T02:45:23;13.40;73.60
32706;DHT22;19094;50.972;3.538;2024-02-21T02:47:49;13.40;73.50
32706;DHT22;19094;50.972;3.538;2024-02-21T02:50:15;13.40;74.10
32706;DHT22;19094;50.972;3.538;2024-02-21T02:52:41;13.40;73.40
32706;DHT22;19094;50.972;3.538;2024-02-21T02:55:07;13.40;73.40
32706;DHT22;19094;50.972;3.538;2024-02-21T02:57:33;13.40;73.40
32706;DHT22;19094;50.972;3.538;2024-02-21T02:59:58;13.40;73.40
32706;DHT22;19094;50.972;3.538;2024-02-21T03:02:24;13.40;74.10
32706;DHT22;19094;50.972;3.538;2024-02-21T03:04:50;13.40;73.40
32706;DHT22;19094;50.972;3.538;2024-02-21T03:07:16;13.40;73.30
32706;DHT22;19094;50.972;3.538;2024-02-21T03:09:42;13.40;73.30
32706;DHT22;19094;50.972;3.538;2024-02-21T03:12:10;13.40;73.30
32706;DHT22;19094;50.972;3.538;2024-02-21T03:14:36;13.40;73.10
32706;DHT22;19094;50.972;3.538;2024-02-21T03:17:02;13.40;73.20
32706;DHT22;19094;50.972;3.538;2024-02-21T03:19:29;13.40;73.10
32706;DHT22;19094;50.972;3.538;2024-02-21T03:21:55;13.40;73.10
32706;DHT22;19094;50.972;3.538;2024-02-21T03:24:21;13.40;73.30
32706;DHT22;19094;50.972;3.538;2024-02-21T03:26:47;13.40;73.30
32706;DHT22;19094;50.972;3.538;2024-02-21T03:29:15;13.40;73.20
32706;DHT22;19094;50.972;3.538;2024-02-21T03:31:41;13.40;73.10
32706;DHT22;19094;50.972;3.538;2024-02-21T03:34:07;13.40;73.10
32706;DHT22;19094;50.972;3.538;2024-02-21T03:36:32;13.30;73.20
32706;DHT22;19094;50.972;3.538;2024-02-21T03:38:58;13.30;73.10
32706;DHT22;19094;50.972;3.538;2024-02-21T03:41:24;13.40;73.10
32706;DHT22;19094;50.972;3.538;2024-02-21T03:43:49;13.30;73.20
32706;DHT22;19094;50.972;3.538;2024-02-21T03:46:15;13.30;73.10
32706;DHT22;19094;50.972;3.538;2024-02-21T03:48:41;13.30;73.10
32706;DHT22;19094;50.972;3.538;2024-02-21T03:51:07;13.30;73.20
32706;DHT22;19094;50.972;3.538;2024-02-21T03:53:33;13.30;73.10
32706;DHT22;19094;50.972;3.538;2024-02-21T03:56:04;13.40;73.20
32706;DHT22;19094;50.972;3.538;2024-02-21T03:58:33;13.30;73.20
32706;DHT22;19094;50.972;3.538;2024-02-21T04:01:02;13.30;73.20
32706;DHT22;19094;50.972;3.538;2024-02-21T04:03:29;13.30;73.20
32706;DHT22;19094;50.972;3.538;2024-02-21T04:05:55;13.30;73.20
32706;DHT22;19094;50.972;3.538;2024-02-21T04:08:21;13.30;73.20
32706;DHT22;19094;50.972;3.538;2024-02-21T04:10:47;13.30;73.10
32706;DHT22;19094;50.972;3.538;2024-02-21T04:13:13;13.30;73.20
32706;DHT22;19094;50.972;3.538;2024-02-21T04:15:38;13.30;73.20
32706;DHT22;19094;50.972;3.538;2024-02-21T04:18:04;13.30;73.20
32706;DHT22;19094;50.972;3.538;2024-02-21T04:20:30;13.30;73.30
32706;DHT22;19094;50.972;3.538;2024-02-21T04:22:56;13.30;73.40
32706;DHT22;19094;50.972;3.538;2024-02-21T04:25:22;13.30;73.30
32706;DHT22;19094;50.972;3.538;2024-02-21T04:27:47;13.30;73.20
32706;DHT22;19094;50.972;3.538;2024-02-21T04:30:13;13.30;73.10
32706;DHT22;19094;50.972;3.538;2024-02-21T04:32:39;13.30;73.20
32706;DHT22;19094;50.972;3.538;2024-02-21T04:35:06;13.30;73.20
32706;DHT22;19094;50.972;3.538;2024-02-21T04:37:32;13.30;73.40
32706;DHT22;19094;50.972;3.538;2024-02-21T04:39:58;13.30;73.30
32706;DHT22;19094;50.972;3.538;2024-02-21T04:42:23;13.30;73.20
32706;DHT22;19094;50.972;3.538;2024-02-21T04:44:49;13.30;73.30
32706;DHT22;19094;50.972;3.538;2024-02-21T04:47:15;13.30;73.40
32706;DHT22;19094;50.972;3.538;2024-02-21T04:49:40;13.30;73.50
32706;DHT22;19094;50.972;3.538;2024-02-21T04:52:06;13.30;73.30
32706;DHT22;19094;50.972;3.538;2024-02-21T04:54:32;13.30;73.20
32706;DHT22;19094;50.972;3.538;2024-02-21T04:56:57;13.30;73.20
32706;DHT22;19094;50.972;3.538;2024-02-21T04:59:23;13.30;73.20
32706;DHT22;19094;50.972;3.538;2024-02-21T05:01:49;13.30;73.30
32706;DHT22;19094;50.972;3.538;2024-02-21T05:04:15;13.30;73.40
32706;DHT22;19094;50.972;3.538;2024-02-21T05:06:41;13.30;73.30
32706;DHT22;19094;50.972;3.538;2024-02-21T05:09:08;13.30;73.30
32706;DHT22;19094;50.972;3.538;2024-02-21T05:11:35;13.30;74.00
32706;DHT22;19094;50.972;3.538;2024-02-21T05:14:01;13.30;73.40
32706;DHT22;19094;50.972;3.538;2024-02-21T05:16:26;13.20;73.40
32706;DHT22;19094;50.972;3.538;2024-02-21T05:18:52;13.20;73.40
32706;DHT22;19094;50.972;3.538;2024-02-21T05:21:17;13.20;73.40
32706;DHT22;19094;50.972;3.538;2024-02-21T05:23:43;13.20;73.50
32706;DHT22;19094;50.972;3.538;2024-02-21T05:26:09;13.20;73.50
32706;DHT22;19094;50.972;3.538;2024-02-21T05:28:35;13.30;73.40
32706;DHT22;19094;50.972;3.538;2024-02-21T05:31:00;13.30;73.40
32706;DHT22;19094;50.972;3.538;2024-02-21T05:33:26;13.20;73.50
32706;DHT22;19094;50.972;3.538;2024-02-21T05:35:52;13.20;73.50
32706;DHT22;19094;50.972;3.538;2024-02-21T05:38:18;13.30;73.50
32706;DHT22;19094;50.972;3.538;2024-02-21T05:40:46;13.30;73.40
32706;DHT22;19094;50.972;3.538;2024-02-21T05:43:14;13.20;73.40
32706;DHT22;19094;50.972;3.538;2024-02-21T05:45:39;13.20;73.50
32706;DHT22;19094;50.972;3.538;2024-02-21T05:48:06;13.30;73.50
32706;DHT22;19094;50.972;3.538;2024-02-21T05:50:33;13.30;73.50
32706;DHT22;19094;50.972;3.538;2024-02-21T05:52:58;13.30;73.40
32706;DHT22;19094;50.972;3.538;2024-02-21T05:55:24;13.20;73.40
32706;DHT22;19094;50.972;3.538;2024-02-21T05:57:53;13.30;74.70
32706;DHT22;19094;50.972;3.538;2024-02-21T06:00:18;13.30;74.10
32706;DHT22;19094;50.972;3.538;2024-02-21T06:02:44;13.30;73.40
32706;DHT22;19094;50.972;3.538;2024-02-21T06:05:10;13.30;73.50
32706;DHT22;19094;50.972;3.538;2024-02-21T06:07:35;13.30;73.60
32706;DHT22;19094;50.972;3.538;2024-02-21T06:10:06;13.20;73.70
32706;DHT22;19094;50.972;3.538;2024-02-21T06:12:32;13.30;73.70
32706;DHT22;19094;50.972;3.538;2024-02-21T06:14:57;13.20;73.60
32706;DHT22;19094;50.972;3.538;2024-02-21T06:17:23;13.20;73.70
32706;DHT22;19094;50.972;3.538;2024-02-21T06:19:48;13.20;73.60
32706;DHT22;19094;50.972;3.538;2024-02-21T06:22:14;13.20;73.70
32706;DHT22;19094;50.972;3.538;2024-02-21T06:24:40;13.20;73.60
32706;DHT22;19094;50.972;3.538;2024-02-21T06:27:06;13.20;73.50
32706;DHT22;19094;50.972;3.538;2024-02-21T06:29:35;13.30;73.60
32706;DHT22;19094;50.972;3.538;2024-02-21T06:32:01;13.30;73.50
32706;DHT22;19094;50.972;3.538;2024-02-21T06:34:27;13.20;73.50
32706;DHT22;19094;50.972;3.538;2024-02-21T06:36:53;13.20;73.60
32706;DHT22;19094;50.972;3.538;2024-02-21T06:39:18;13.20;73.50
32706;DHT22;19094;50.972;3.538;2024-02-21T06:41:44;13.20;73.60
32706;DHT22;19094;50.972;3.538;2024-02-21T06:44:10;13.20;73.60
32706;DHT22;19094;50.972;3.538;2024-02-21T06:46:36;13.20;73.70
32706;DHT22;19094;50.972;3.538;2024-02-21T06:49:02;13.20;73.60
32706;DHT22;19094;50.972;3.538;2024-02-21T06:51:29;13.20;73.60
32706;DHT22;19094;50.972;3.538;2024-02-21T06:53:55;13.10;73.70
32706;DHT22;19094;50.972;3.538;2024-02-21T06:56:22;13.20;73.60
32706;DHT22;19094;50.972;3.538;2024-02-21T06:58:52;13.20;73.70
32706;DHT22;19094;50.972;3.538;2024-02-21T07:01:18;13.20;73.70
32706;DHT22;19094;50.972;3.538;2024-02-21T07:03:43;13.20;73.60
32706;DHT22;19094;50.972;3.538;2024-02-21T07:06:09;13.30;76.00
32706;DHT22;19094;50.972;3.538;2024-02-21T07:08:34;13.40;75.00
32706;DHT22;19094;50.972;3.538;2024-02-21T07:11:00;13.30;74.10
32706;DHT22;19094;50.972;3.538;2024-02-21T07:13:26;13.40;74.50
32706;DHT22;19094;50.972;3.538;2024-02-21T07:15:51;13.30;74.80
32706;DHT22;19094;50.972;3.538;2024-02-21T07:18:17;13.40;74.70
32706;DHT22;19094;50.972;3.538;2024-02-21T07:20:43;13.30;74.50
32706;DHT22;19094;50.972;3.538;2024-02-21T07:23:08;13.30;74.10
32706;DHT22;19094;50.972;3.538;2024-02-21T07:25:34;13.30;74.20
32706;DHT22;19094;50.972;3.538;2024-02-21T07:28:00;13.30;74.10
32706;DHT22;19094;50.972;3.538;2024-02-21T07:30:25;13.30;74.20
32706;DHT22;19094;50.972;3.538;2024-02-21T07:32:51;13.30;74.20
32706;DHT22;19094;50.972;3.538;2024-02-21T07:35:20;13.30;74.30
32706;DHT22;19094;50.972;3.538;2024-02-21T07:37:46;13.30;74.50
32706;DHT22;19094;50.972;3.538;2024-02-21T07:40:16;13.20;74.20
32706;DHT22;19094;50.972;3.538;2024-02-21T07:42:42;13.20;74.20
32706;DHT22;19094;50.972;3.538;2024-02-21T07:45:08;13.20;74.20
32706;DHT22;19094;50.972;3.538;2024-02-21T07:47:35;13.20;74.10
32706;DHT22;19094;50.972;3.538;2024-02-21T07:50:01;13.20;74.10
32706;DHT22;19094;50.972;3.538;2024-02-21T07:52:27;13.20;74.10
32706;DHT22;19094;50.972;3.538;2024-02-21T07:54:53;13.10;74.20
32706;DHT22;19094;50.972;3.538;2024-02-21T07:57:19;13.20;74.20
32706;DHT22;19094;50.972;3.538;2024-02-21T07:59:45;13.20;74.20
32706;DHT22;19094;50.972;3.538;2024-02-21T08:02:14;13.20;74.90
32706;DHT22;19094;50.972;3.538;2024-02-21T08:04:39;13.20;74.00
32706;DHT22;19094;50.972;3.538;2024-02-21T08:07:05;13.20;74.10
32706;DHT22;19094;50.972;3.538;2024-02-21T08:09:31;13.20;74.10
32706;DHT22;19094;50.972;3.538;2024-02-21T08:11:56;13.20;74.00
32706;DHT22;19094;50.972;3.538;2024-02-21T08:14:22;13.20;74.00
32706;DHT22;19094;50.972;3.538;2024-02-21T08:16:50;13.20;74.10
32706;DHT22;19094;50.972;3.538;2024-02-21T08:19:16;13.10;74.00
32706;DHT22;19094;50.972;3.538;2024-02-21T08:21:42;13.20;74.00
32706;DHT22;19094;50.972;3.538;2024-02-21T08:24:08;13.10;73.80
32706;DHT22;19094;50.972;3.538;2024-02-21T08:26:33;13.20;73.90
32706;DHT22;19094;50.972;3.538;2024-02-21T08:29:01;13.10;73.80
32706;DHT22;19094;50.972;3.538;2024-02-21T08:31:27;13.10;73.80
32706;DHT22;19094;50.972;3.538;2024-02-21T08:34:00;13.20;73.90
32706;DHT22;19094;50.972;3.538;2024-02-21T08:36:35;13.20;73.70
32706;DHT22;19094;50.972;3.538;2024-02-21T08:39:02;13.20;73.60
32706;DHT22;19094;50.972;3.538;2024-02-21T08:41:31;13.20;73.60
32706;DHT22;19094;50.972;3.538;2024-02-21T08:43:56;13.10;73.60
32706;DHT22;19094;50.972;3.538;2024-02-21T08:46:23;13.20;73.50
32706;DHT22;19094;50.972;3.538;2024-02-21T08:48:50;13.20;73.40
32706;DHT22;19094;50.972;3.538;2024-02-21T08:51:17;13.20;73.60
32706;DHT22;19094;50.972;3.538;2024-02-21T08:53:44;13.20;73.50
32706;DHT22;19094;50.972;3.538;2024-02-21T08:56:10;13.20;73.50
32706;DHT22;19094;50.972;3.538;2024-02-21T08:58:36;13.10;73.50
32706;DHT22;19094;50.972;3.538;2024-02-21T09:01:03;13.20;73.50
32706;DHT22;19094;50.972;3.538;2024-02-21T09:03:33;13.20;73.40
32706;DHT22;19094;50.972;3.538;2024-02-21T09:05:59;13.20;73.30
32706;DHT22;19094;50.972;3.538;2024-02-21T09:08:26;13.20;73.20
32706;DHT22;19094;50.972;3.538;2024-02-21T09:10:52;13.20;73.40
32706;DHT22;19094;50.972;3.538;2024-02-21T09:13:18;13.20;73.10
32706;DHT22;19094;50.972;3.538;2024-02-21T09:15:44;13.30;73.10
32706;DHT22;19094;50.972;3.538;2024-02-21T09:18:09;13.20;73.10
32706;DHT22;19094;50.972;3.538;2024-02-21T09:20:35;13.30;73.10
32706;DHT22;19094;50.972;3.538;2024-02-21T09:23:01;13.30;73.00
32706;DHT22;19094;50.972;3.538;2024-02-21T09:25:27;13.30;73.00
32706;DHT22;19094;50.972;3.538;2024-02-21T09:27:54;13.30;72.80
32706;DHT22;19094;50.972;3.538;2024-02-21T09:30:20;13.30;72.90
32706;DHT22;19094;50.972;3.538;2024-02-21T09:32:46;13.20;72.90
32706;DHT22;19094;50.972;3.538;2024-02-21T09:35:12;13.20;72.90
32706;DHT22;19094;50.972;3.538;2024-02-21T09:37:39;13.20;72.80
32706;DHT22;19094;50.972;3.538;2024-02-21T09:40:05;13.20;72.90
32706;DHT22;19094;50.972;3.538;2024-02-21T09:42:39;13.30;73.00
32706;DHT22;19094;50.972;3.538;2024-02-21T09:45:09;13.30;72.80
32706;DHT22;19094;50.972;3.538;2024-02-21T09:50:30;13.30;72.70
32706;DHT22;19094;50.972;3.538;2024-02-21T09:52:58;13.20;72.90
32706;DHT22;19094;50.972;3.538;2024-02-21T09:55:27;13.30;72.80
32706;DHT22;19094;50.972;3.538;2024-02-21T09:57:55;13.20;72.80
32706;DHT22;19094;50.972;3.538;2024-02-21T10:00:23;13.20;72.90
32706;DHT22;19094;50.972;3.538;2024-02-21T10:02:48;13.30;72.80
32706;DHT22;19094;50.972;3.538;2024-02-21T10:05:17;13.30;72.80
32706;DHT22;19094;50.972;3.538;2024-02-21T10:07:43;13.30;72.80
32706;DHT22;19094;50.972;3.538;2024-02-21T10:10:09;13.30;72.80
32706;DHT22;19094;50.972;3.538;2024-02-21T10:12:35;13.30;72.70
32706;DHT22;19094;50.972;3.538;2024-02-21T10:15:05;13.30;72.70
32706;DHT22;19094;50.972;3.538;2024-02-21T10:17:35;13.40;72.60
32706;DHT22;19094;50.972;3.538;2024-02-21T10:20:11;13.40;72.40
32706;DHT22;19094;50.972;3.538;2024-02-21T10:22:38;13.30;72.30
32706;DHT22;19094;50.972;3.538;2024-02-21T10:25:12;13.30;72.50
32706;DHT22;19094;50.972;3.538;2024-02-21T10:27:41;13.30;72.60
32706;DHT22;19094;50.972;3.538;2024-02-21T10:30:16;13.30;72.60
32706;DHT22;19094;50.972;3.538;2024-02-21T10:32:54;13.30;72.60
32706;DHT22;19094;50.972;3.538;2024-02-21T10:35:33;13.30;72.70
32706;DHT22;19094;50.972;3.538;2024-02-21T10:37:59;13.30;72.70
32706;DHT22;19094;50.972;3.538;2024-02-21T10:40:29;13.30;72.70
32706;DHT22;19094;50.972;3.538;2024-02-21T10:43:01;13.30;72.50
32706;DHT22;19094;50.972;3.538;2024-02-21T10:45:34;13.30;72.50
32706;DHT22;19094;50.972;3.538;2024-02-21T10:48:13;13.30;72.20
32706;DHT22;19094;50.972;3.538;2024-02-21T10:58:44;13.40;72.70
32706;DHT22;19094;50.972;3.538;2024-02-21T11:01:12;13.30;72.60
32706;DHT22;19094;50.972;3.538;2024-02-21T11:03:41;13.30;72.20
32706;DHT22;19094;50.972;3.538;2024-02-21T11:06:11;13.30;72.40
32706;DHT22;19094;50.972;3.538;2024-02-21T11:08:37;13.30;72.20
32706;DHT22;19094;50.972;3.538;2024-02-21T11:11:05;13.30;72.50
32706;DHT22;19094;50.972;3.538;2024-02-21T11:13:41;13.30;72.40
32706;DHT22;19094;50.972;3.538;2024-02-21T11:16:08;13.30;72.30
32706;DHT22;19094;50.972;3.538;2024-02-21T11:18:35;13.30;72.50
32706;DHT22;19094;50.972;3.538;2024-02-21T11:21:01;13.30;72.50
32706;DHT22;19094;50.972;3.538;2024-02-21T11:23:28;13.30;72.50
32706;DHT22;19094;50.972;3.538;2024-02-21T11:26:07;13.30;72.50
32706;DHT22;19094;50.972;3.538;2024-02-21T11:28:33;13.40;72.40
32706;DHT22;19094;50.972;3.538;2024-02-21T11:31:12;13.30;72.40
32706;DHT22;19094;50.972;3.538;2024-02-21T11:33:42;13.30;72.40
32706;DHT22;19094;50.972;3.538;2024-02-21T11:36:10;13.30;72.50
32706;DHT22;19094;50.972;3.538;2024-02-21T11:38:37;13.30;72.40
32706;DHT22;19094;50.972;3.538;2024-02-21T11:41:03;13.30;72.50
32706;DHT22;19094;50.972;3.538;2024-02-21T11:43:33;13.30;72.30
32706;DHT22;19094;50.972;3.538;2024-02-21T11:46:00;13.30;72.30
32706;DHT22;19094;50.972;3.538;2024-02-21T11:48:26;13.30;72.20
32706;DHT22;19094;50.972;3.538;2024-02-21T11:50:55;13.30;72.20
32706;DHT22;19094;50.972;3.538;2024-02-21T11:53:21;13.30;72.20
32706;DHT22;19094;50.972;3.538;2024-02-21T11:55:47;13.30;72.10
32706;DHT22;19094;50.972;3.538;2024-02-21T11:58:13;13.30;72.10
32706;DHT22;19094;50.972;3.538;2024-02-21T12:00:38;13.30;72.10
32706;DHT22;19094;50.972;3.538;2024-02-21T12:03:05;13.30;72.00
32706;DHT22;19094;50.972;3.538;2024-02-21T12:05:31;13.30;72.00
32706;DHT22;19094;50.972;3.538;2024-02-21T12:07:57;13.30;72.00
32706;DHT22;19094;50.972;3.538;2024-02-21T12:10:25;13.30;71.90
32706;DHT22;19094;50.972;3.538;2024-02-21T12:12:52;13.30;71.80
32706;DHT22;19094;50.972;3.538;2024-02-21T12:15:18;13.30;71.70
32706;DHT22;19094;50.972;3.538;2024-02-21T12:17:44;13.40;71.80
32706;DHT22;19094;50.972;3.538;2024-02-21T12:20:10;13.30;71.80
32706;DHT22;19094;50.972;3.538;2024-02-21T12:22:39;13.40;71.80
32706;DHT22;19094;50.972;3.538;2024-02-21T12:25:25;13.40;71.80
32706;DHT22;19094;50.972;3.538;2024-02-21T12:27:54;13.40;71.70
32706;DHT22;19094;50.972;3.538;2024-02-21T12:30:21;13.40;71.60
32706;DHT22;19094;50.972;3.538;2024-02-21T12:32:47;13.40;71.80
32706;DHT22;19094;50.972;3.538;2024-02-21T12:35:14;13.40;71.60
32706;DHT22;19094;50.972;3.538;2024-02-21T12:37:39;13.40;71.50
32706;DHT22;19094;50.972;3.538;2024-02-21T12:40:06;13.40;71.50
32706;DHT22;19094;50.972;3.538;2024-02-21T12:42:33;13.40;71.50
32706;DHT22;19094;50.972;3.538;2024-02-21T12:44:59;13.50;71.50
32706;DHT22;19094;50.972;3.538;2024-02-21T12:47:25;13.40;71.30
32706;DHT22;19094;50.972;3.538;2024-02-21T12:49:52;13.40;71.40
32706;DHT22;19094;50.972;3.538;2024-02-21T12:52:18;13.40;71.40
32706;DHT22;19094;50.972;3.538;2024-02-21T12:54:44;13.40;71.50
32706;DHT22;19094;50.972;3.538;2024-02-21T12:57:09;13.40;71.80
32706;DHT22;19094;50.972;3.538;2024-02-21T12:59:35;13.40;71.80
32706;DHT22;19094;50.972;3.538;2024-02-21T13:02:01;13.40;71.70
32706;DHT22;19094;50.972;3.538;2024-02-21T13:04:26;13.40;71.80
32706;DHT22;19094;50.972;3.538;2024-02-21T13:06:52;13.40;71.60
32706;DHT22;19094;50.972;3.538;2024-02-21T13:09:18;13.40;71.70
32706;DHT22;19094;50.972;3.538;2024-02-21T13:11:44;13.40;71.80
32706;DHT22;19094;50.972;3.538;2024-02-21T13:14:11;13.40;71.90
32706;DHT22;19094;50.972;3.538;2024-02-21T13:16:37;13.50;72.00
32706;DHT22;19094;50.972;3.538;2024-02-21T13:19:06;13.40;72.00
32706;DHT22;19094;50.972;3.538;2024-02-21T13:21:34;13.50;72.10
32706;DHT22;19094;50.972;3.538;2024-02-21T13:24:00;13.40;72.10
32706;DHT22;19094;50.972;3.538;2024-02-21T13:26:26;13.40;72.30
32706;DHT22;19094;50.972;3.538;2024-02-21T13:28:52;13.40;72.40
32706;DHT22;19094;50.972;3.538;2024-02-21T13:31:18;13.40;72.60
32706;DHT22;19094;50.972;3.538;2024-02-21T13:33:44;13.40;72.60
32706;DHT22;19094;50.972;3.538;2024-02-21T13:36:12;13.40;72.70
32706;DHT22;19094;50.972;3.538;2024-02-21T13:38:38;13.40;72.70
32706;DHT22;19094;50.972;3.538;2024-02-21T13:41:05;13.40;72.80
32706;DHT22;19094;50.972;3.538;2024-02-21T13:43:32;13.40;72.90
32706;DHT22;19094;50.972;3.538;2024-02-21T13:45:59;13.40;73.00
32706;DHT22;19094;50.972;3.538;2024-02-21T13:48:25;13.40;73.10
32706;DHT22;19094;50.972;3.538;2024-02-21T13:50:51;13.40;72.90
32706;DHT22;19094;50.972;3.538;2024-02-21T13:53:16;13.40;73.10
32706;DHT22;19094;50.972;3.538;2024-02-21T13:55:44;13.40;73.30
32706;DHT22;19094;50.972;3.538;2024-02-21T13:58:10;13.40;73.20
32706;DHT22;19094;50.972;3.538;2024-02-21T14:00:36;13.40;73.20
32706;DHT22;19094;50.972;3.538;2024-02-21T14:03:02;13.40;73.20
32706;DHT22;19094;50.972;3.538;2024-02-21T14:05:28;13.40;73.50
32706;DHT22;19094;50.972;3.538;2024-02-21T14:07:54;13.40;73.50
32706;DHT22;19094;50.972;3.538;2024-02-21T14:10:22;13.40;73.50
32706;DHT22;19094;50.972;3.538;2024-02-21T14:12:48;13.30;73.50
32706;DHT22;19094;50.972;3.538;2024-02-21T14:15:14;13.40;74.40
32706;DHT22;19094;50.972;3.538;2024-02-21T14:17:42;13.40;74.40
32706;DHT22;19094;50.972;3.538;2024-02-21T14:20:08;13.30;73.80
32706;DHT22;19094;50.972;3.538;2024-02-21T14:22:34;13.40;73.80
32706;DHT22;19094;50.972;3.538;2024-02-21T14:25:00;13.40;73.70
32706;DHT22;19094;50.972;3.538;2024-02-21T14:27:26;13.40;74.00
32706;DHT22;19094;50.972;3.538;2024-02-21T14:29:52;13.30;73.90
32706;DHT22;19094;50.972;3.538;2024-02-21T14:32:18;13.30;74.60
32706;DHT22;19094;50.972;3.538;2024-02-21T14:34:45;13.40;74.00
32706;DHT22;19094;50.972;3.538;2024-02-21T14:37:11;13.30;74.00
32706;DHT22;19094;50.972;3.538;2024-02-21T14:39:36;13.30;74.00
32706;DHT22;19094;50.972;3.538;2024-02-21T14:42:02;13.40;74.00
32706;DHT22;19094;50.972;3.538;2024-02-21T14:44:28;13.30;74.10
32706;DHT22;19094;50.972;3.538;2024-02-21T14:46:54;13.30;74.20
32706;DHT22;19094;50.972;3.538;2024-02-21T14:49:19;13.30;74.30
32706;DHT22;19094;50.972;3.538;2024-02-21T14:51:45;13.30;74.30
32706;DHT22;19094;50.972;3.538;2024-02-21T14:54:11;13.30;74.30
32706;DHT22;19094;50.972;3.538;2024-02-21T14:56:37;13.30;74.30
32706;DHT22;19094;50.972;3.538;2024-02-21T14:59:03;13.30;74.40
32706;DHT22;19094;50.972;3.538;2024-02-21T15:01:29;13.30;74.50
32706;DHT22;19094;50.972;3.538;2024-02-21T15:03:55;13.30;74.50
32706;DHT22;19094;50.972;3.538;2024-02-21T15:06:20;13.40;74.40
32706;DHT22;19094;50.972;3.538;2024-02-21T15:08:46;13.30;74.40
32706;DHT22;19094;50.972;3.538;2024-02-21T15:11:14;13.30;74.60
32706;DHT22;19094;50.972;3.538;2024-02-21T15:13:39;13.30;74.80
32706;DHT22;19094;50.972;3.538;2024-02-21T15:16:05;13.20;75.20
32706;DHT22;19094;50.972;3.538;2024-02-21T15:18:31;13.20;75.30
32706;DHT22;19094;50.972;3.538;2024-02-21T15:20:59;13.30;75.30
32706;DHT22;19094;50.972;3.538;2024-02-21T15:23:25;13.20;75.10
32706;DHT22;19094;50.972;3.538;2024-02-21T15:25:51;13.20;75.20
32706;DHT22;19094;50.972;3.538;2024-02-21T15:28:17;13.20;75.30
32706;DHT22;19094;50.972;3.538;2024-02-21T15:30:42;13.30;75.30
32706;DHT22;19094;50.972;3.538;2024-02-21T15:33:08;13.30;75.50
32706;DHT22;19094;50.972;3.538;2024-02-21T15:35:34;13.30;75.40
32706;DHT22;19094;50.972;3.538;2024-02-21T15:38:01;13.30;75.20